createdAt,value
2022-11-19T00:00:47.630Z,-1.78
2022-11-19T00:05:50.492Z,-1.87
2022-11-19T00:10:52.784Z,-1.62
2022-11-19T00:15:54.948Z,-1.70
2022-11-19T00:21:03.443Z,-1.77
2022-11-19T00:26:15.072Z,-1.81
2022-11-19T00:31:17.407Z,-2.00
2022-11-19T00:36:19.137Z,-2.39
2022-11-19T00:41:20.810Z,-2.44
2022-11-19T00:46:30.965Z,-2.69
2022-11-19T00:51:33.279Z,-2.95
2022-11-19T00:56:34.981Z,-2.73
2022-11-19T01:01:36.748Z,-2.77
2022-11-19T01:06:38.459Z,-2.81
2022-11-19T01:11:40.328Z,-3.22
2022-11-19T01:16:42.437Z,-3.22
2022-11-19T01:21:44.109Z,-3.22
2022-11-19T01:26:46.370Z,-3.30
2022-11-19T01:31:50.661Z,-3.04
2022-11-19T01:36:53.187Z,-2.96
2022-11-19T01:41:55.336Z,-3.10
2022-11-19T01:46:57.472Z,-3.39
2022-11-19T01:52:02.940Z,-3.26
2022-11-19T01:57:10.543Z,-3.20
2022-11-19T02:02:13.583Z,-2.94
2022-11-19T02:07:16.722Z,-2.94
2022-11-19T02:12:49.539Z,-3.08
2022-11-19T02:18:11.038Z,-3.18
2022-11-19T02:23:34.479Z,-3.18
2022-11-19T02:28:46.628Z,-3.39
2022-11-19T02:33:56.362Z,-3.61
2022-11-19T02:39:06.607Z,-3.61
2022-11-19T02:44:40.568Z,-3.85
2022-11-19T02:49:47.487Z,-4.01
2022-11-19T02:54:49.277Z,-4.01
2022-11-19T03:00:17.334Z,-4.13
2022-11-19T03:05:23.351Z,-3.78
2022-11-19T03:10:31.481Z,-3.98
2022-11-19T03:15:51.673Z,-3.99
2022-11-19T03:21:04.335Z,-3.99
2022-11-19T03:26:40.740Z,-4.22
2022-11-19T03:31:47.610Z,-4.21
2022-11-19T03:36:53.539Z,-4.11
2022-11-19T03:41:56.964Z,-4.11
2022-11-19T03:47:08.283Z,-4.43
2022-11-19T03:52:12.745Z,-4.72
2022-11-19T03:57:20.132Z,-4.72
2022-11-19T04:02:22.069Z,-4.80
2022-11-19T04:07:24.471Z,-4.80
2022-11-19T04:12:26.165Z,-4.85
2022-11-19T04:17:27.907Z,-4.60
2022-11-19T04:22:29.579Z,-4.60
2022-11-19T04:27:31.244Z,-4.61
2022-11-19T04:32:32.908Z,-4.61
2022-11-19T04:37:34.656Z,-4.86
2022-11-19T04:42:36.317Z,-5.07
2022-11-19T04:47:38.011Z,-5.07
2022-11-19T04:52:41.305Z,-4.98
2022-11-19T04:57:43.379Z,-5.14
2022-11-19T05:02:45.674Z,-5.36
2022-11-19T05:07:47.411Z,-5.33
2022-11-19T05:12:49.504Z,-5.09
2022-11-19T05:17:51.228Z,-5.06
2022-11-19T05:22:53.051Z,-5.24
2022-11-19T05:27:54.804Z,-5.25
2022-11-19T05:32:56.779Z,-5.25
2022-11-19T05:37:58.489Z,-5.24
2022-11-19T05:43:06.228Z,-5.28
2022-11-19T05:48:07.906Z,-5.28
2022-11-19T05:53:10.173Z,-5.30
2022-11-19T05:58:13.780Z,-5.62
2022-11-19T06:03:15.562Z,-5.50
2022-11-19T06:08:17.578Z,-5.31
2022-11-19T06:13:19.323Z,-5.63
2022-11-19T06:18:21.011Z,-5.75
2022-11-19T06:23:22.677Z,-5.57
2022-11-19T06:28:24.403Z,-5.55
2022-11-19T06:33:26.091Z,-5.53
2022-11-19T06:38:27.781Z,-5.73
2022-11-19T06:43:29.471Z,-5.59
2022-11-19T06:48:31.194Z,-5.45
2022-11-19T06:53:33.284Z,-5.45
2022-11-19T06:58:35.121Z,-5.23
2022-11-19T07:03:36.861Z,-5.28
2022-11-19T07:08:39.482Z,-5.28
2022-11-19T07:13:59.060Z,-5.41
2022-11-19T07:19:03.091Z,-5.66
2022-11-19T07:24:07.472Z,-5.39
2022-11-19T07:29:11.338Z,-5.24
2022-11-19T07:34:12.986Z,-5.25
2022-11-19T07:39:14.660Z,-4.90
2022-11-19T07:44:16.372Z,-5.20
2022-11-19T07:49:18.714Z,-5.39
2022-11-19T07:54:20.743Z,-5.16
2022-11-19T07:59:22.678Z,-4.98
2022-11-19T08:04:27.006Z,-4.76
2022-11-19T08:09:28.743Z,-4.95
2022-11-19T08:14:30.436Z,-4.55
2022-11-19T08:19:32.146Z,-4.54
2022-11-19T08:24:33.796Z,-4.63
2022-11-19T08:29:35.489Z,-4.38
2022-11-19T08:34:37.244Z,-4.25
2022-11-19T08:39:40.429Z,-4.22
2022-11-19T08:44:42.099Z,-4.04
2022-11-19T08:49:43.758Z,-3.59
2022-11-19T08:54:45.451Z,-3.35
2022-11-19T08:59:47.201Z,-3.39
2022-11-19T09:04:48.970Z,-2.92
2022-11-19T09:09:50.674Z,-3.16
2022-11-19T09:14:52.347Z,-1.66
2022-11-19T09:19:54.035Z,-0.36
2022-11-19T09:24:55.756Z,0.11
2022-11-19T09:29:57.442Z,0.32
2022-11-19T09:34:59.107Z,0.47
2022-11-19T09:40:00.930Z,3.97
2022-11-19T09:45:33.333Z,4.91
2022-11-19T09:50:53.074Z,5.20
2022-11-19T09:55:55.310Z,6.45
2022-11-19T10:00:57.429Z,6.94
2022-11-19T10:06:18.000Z,5.82
2022-11-19T10:11:31.790Z,7.71
2022-11-19T10:16:42.055Z,8.14
2022-11-19T10:22:09.895Z,7.84
2022-11-19T10:27:19.542Z,10.20
2022-11-19T10:32:24.176Z,9.75
2022-11-19T10:37:32.159Z,9.97
2022-11-19T10:42:33.794Z,13.38
2022-11-19T10:47:44.470Z,14.63
2022-11-19T10:52:53.055Z,15.47
2022-11-19T10:58:22.845Z,15.01
2022-11-19T11:03:34.797Z,15.50
2022-11-19T11:08:52.954Z,11.54
2022-11-19T11:14:18.747Z,13.58
2022-11-19T11:19:22.005Z,13.40
2022-11-19T11:24:36.576Z,14.58
2022-11-19T11:29:38.258Z,16.32
2022-11-19T11:34:43.945Z,15.45
2022-11-19T11:39:50.959Z,14.66
2022-11-19T11:44:54.356Z,12.81
2022-11-19T11:50:06.739Z,11.73
2022-11-19T11:55:31.713Z,13.08
2022-11-19T12:00:40.806Z,13.64
2022-11-19T12:06:04.356Z,11.47
2022-11-19T12:11:12.058Z,11.43
2022-11-19T12:16:42.554Z,11.64
2022-11-19T12:21:56.625Z,12.17
2022-11-19T12:27:01.090Z,12.30
2022-11-19T12:32:17.861Z,11.57
2022-11-19T12:37:33.578Z,12.03
2022-11-19T12:43:02.043Z,13.27
2022-11-19T12:48:13.342Z,10.87
2022-11-19T12:53:27.795Z,9.77
2022-11-19T12:58:35.468Z,11.13
2022-11-19T13:03:49.271Z,10.85
2022-11-19T13:09:34.670Z,8.77
2022-11-19T13:14:54.645Z,8.38
2022-11-19T13:20:01.379Z,8.14
2022-11-19T13:25:05.472Z,7.21
2022-11-19T13:30:17.833Z,6.65
2022-11-19T13:35:33.130Z,7.24
2022-11-19T13:40:59.114Z,7.45
2022-11-19T13:46:26.656Z,7.02
2022-11-19T13:51:47.701Z,6.87
2022-11-19T13:56:51.630Z,5.69
2022-11-19T14:02:10.999Z,4.59
2022-11-19T14:07:22.892Z,4.42
2022-11-19T14:12:52.589Z,3.56
2022-11-19T14:18:20.801Z,1.97
2022-11-19T14:24:06.868Z,2.53
2022-11-19T14:29:40.380Z,2.28
2022-11-19T14:34:46.937Z,1.49
2022-11-19T14:39:57.361Z,1.50
2022-11-19T14:45:02.988Z,1.29
2022-11-19T14:50:09.026Z,0.70
2022-11-19T14:55:16.707Z,-0.35
2022-11-19T15:00:18.327Z,-0.64
2022-11-19T15:05:21.531Z,-0.69
2022-11-19T15:10:27.577Z,-1.09
2022-11-19T15:15:38.178Z,-1.43
2022-11-19T15:21:14.013Z,-1.65
2022-11-19T15:26:41.439Z,-1.61
2022-11-19T15:32:14.185Z,-1.56
2022-11-19T15:37:19.177Z,-1.58
2022-11-19T15:42:42.071Z,-1.73
2022-11-19T15:48:18.272Z,-2.20
2022-11-19T15:53:24.419Z,-1.99
2022-11-19T15:58:30.386Z,-2.60
2022-11-19T16:03:32.663Z,-2.61
2022-11-19T16:08:35.086Z,-2.72
2022-11-19T16:13:55.295Z,-2.86
2022-11-19T16:18:56.971Z,-2.77
2022-11-19T16:24:18.993Z,-2.91
2022-11-19T16:29:23.615Z,-2.58
2022-11-19T16:34:29.952Z,-2.64
2022-11-19T16:39:33.152Z,-2.91
2022-11-19T16:44:35.249Z,-3.14
2022-11-19T16:49:49.213Z,-3.27
2022-11-19T16:54:51.310Z,-3.32
2022-11-19T16:59:59.435Z,-2.99
2022-11-19T17:05:12.448Z,-2.88
2022-11-19T17:10:14.074Z,-2.98
2022-11-19T17:15:44.854Z,-3.42
2022-11-19T17:20:50.932Z,-3.66
2022-11-19T17:26:08.274Z,-3.76
2022-11-19T17:31:19.610Z,-3.62
2022-11-19T17:36:22.411Z,-3.87
2022-11-19T17:41:46.139Z,-3.72
2022-11-19T17:46:47.922Z,-3.77
2022-11-19T17:51:49.604Z,-3.66
2022-11-19T17:56:51.262Z,-3.54
2022-11-19T18:01:53.518Z,-3.53
2022-11-19T18:06:55.222Z,-3.47
2022-11-19T18:11:56.916Z,-3.73
2022-11-19T18:16:58.697Z,-3.99
2022-11-19T18:22:00.447Z,-3.95
2022-11-19T18:27:02.179Z,-3.83
2022-11-19T18:32:03.919Z,-3.68
2022-11-19T18:37:05.712Z,-4.05
2022-11-19T18:42:10.868Z,-4.37
2022-11-19T18:47:14.754Z,-4.26
2022-11-19T18:52:16.406Z,-4.27
2022-11-19T18:57:18.067Z,-3.96
2022-11-19T19:02:19.744Z,-4.23
2022-11-19T19:07:21.571Z,-4.44
2022-11-19T19:12:23.308Z,-4.85
2022-11-19T19:17:25.134Z,-4.37
2022-11-19T19:22:26.913Z,-4.29
2022-11-19T19:27:28.680Z,-4.30
2022-11-19T19:32:30.393Z,-4.42
2022-11-19T19:37:32.044Z,-4.58
2022-11-19T19:42:38.439Z,-4.68
2022-11-19T19:47:42.664Z,-4.64
2022-11-19T19:52:44.315Z,-4.45
2022-11-19T19:57:45.977Z,-4.42
2022-11-19T20:02:49.020Z,-4.50
2022-11-19T20:07:50.680Z,-4.76
2022-11-19T20:13:10.637Z,-4.46
2022-11-19T20:18:12.292Z,-4.35
2022-11-19T20:23:13.964Z,-4.63
2022-11-19T20:28:15.645Z,-4.99
2022-11-19T20:33:17.778Z,-4.75
2022-11-19T20:38:19.826Z,-4.74
2022-11-19T20:43:45.803Z,-4.72
2022-11-19T20:48:50.611Z,-5.06
2022-11-19T20:53:52.581Z,-5.14
2022-11-19T20:58:54.522Z,-4.97
2022-11-19T21:03:59.732Z,-5.06
2022-11-19T21:09:01.731Z,-5.08
2022-11-19T21:14:04.095Z,-5.17
2022-11-19T21:19:05.804Z,-5.14
2022-11-19T21:24:07.832Z,-5.29
2022-11-19T21:29:09.538Z,-4.95
2022-11-19T21:34:17.687Z,-4.96
2022-11-19T21:39:20.472Z,-4.95
2022-11-19T21:44:22.572Z,-4.92
2022-11-19T21:49:24.381Z,-5.20
2022-11-19T21:54:26.127Z,-4.98
2022-11-19T21:59:27.779Z,-5.00
2022-11-19T22:04:29.498Z,-4.91
2022-11-19T22:09:31.386Z,-5.18
2022-11-19T22:14:33.039Z,-5.21
2022-11-19T22:19:36.003Z,-5.20
2022-11-19T22:24:37.683Z,-5.39
2022-11-19T22:29:39.512Z,-5.17
2022-11-19T22:34:41.181Z,-5.12
2022-11-19T22:39:43.950Z,-5.38
2022-11-19T22:44:45.648Z,-5.17
2022-11-19T22:49:47.348Z,-5.43
2022-11-19T22:54:49.101Z,-5.67
2022-11-19T22:59:50.773Z,-5.63
2022-11-19T23:04:52.899Z,-5.59
2022-11-19T23:09:54.566Z,-5.59
2022-11-19T23:14:56.529Z,-5.62
2022-11-19T23:20:03.106Z,-5.77
2022-11-19T23:25:06.567Z,-6.11
2022-11-19T23:30:08.751Z,-6.12
2022-11-19T23:35:10.408Z,-5.81
2022-11-19T23:40:12.232Z,-5.48
2022-11-19T23:45:13.932Z,-5.57
2022-11-19T23:50:15.660Z,-5.60
2022-11-19T23:55:17.320Z,-5.92
